CheckWX is a tool to help pilots better visualize weather data.  It is not intended as a substitute for an official pre-flight weather briefing.

02:08:19 UTC

ETSN TAF
Neuburg Airport
Germany
TAF ETSN 200125Z 2002/2011 23003KT 7000 -RA SCT020 BKN060 BKN180 TEMPO 2002/2011 24008KT 4000 RA SCT010 BKN015 OVC040 PROB30 2010/2011 23015KT 2000 TSRA BKN010 BKN030CB BY ETGL

Aug-20@
02:00 UTC

Aug-20 @ 02:00 UTC

Aug-20@
11:00 UTC

Aug-20 @ 11:00 UTC

TAF ETSN 200125Z 2002/2011 23003KT 7000 -RA SCT020 BKN060 BKN180
Wind
  • 230° at 3 KTS
Conditions
Light Rain
Cloud Levels
  • Scattered at 2,000' AGL
  • Broken at 6,000' AGL
  • Broken at 18,000' AGL

Aug-20@
02:00 UTC

Aug-20 @ 02:00 UTC

Aug-20@
11:00 UTC

Aug-20 @ 11:00 UTC

TEMPO 2002/2011 24008KT 4000 RA SCT010 BKN015 OVC040

Temporary

Temporary Changes expected for less than half the time period

Wind
  • 240° at 8 KTS
Conditions
Rain
Cloud Levels
  • Scattered at 1,000' AGL
  • Broken at 1,500' AGL
  • Overcast at 4,000' AGL

Aug-20@
10:00 UTC

Aug-20 @ 10:00 UTC

Aug-20@
11:00 UTC

Aug-20 @ 11:00 UTC

PROB30 2010/2011 23015KT 2000 TSRA BKN010 BKN030CB BY ETGL

Probable - 30% Likelihood

Probable - 30% Likelihood during this time.

Wind
  • 230° at 15 KTS
Conditions
Thunderstorm, Rain
Cloud Levels
  • Broken at 1,000' AGL
  • Broken at 3,000' AGL